createdAt,value
2018-07-24T00:01:21.672Z,20.93
2018-07-24T00:03:49.793Z,20.63
2018-07-24T00:06:17.913Z,21.57
2018-07-24T00:08:46.029Z,20.30
2018-07-24T00:11:14.176Z,19.73
2018-07-24T00:13:42.350Z,21.23
2018-07-24T00:16:10.537Z,20.20
2018-07-24T00:18:38.685Z,19.67
2018-07-24T00:21:06.861Z,18.83
2018-07-24T00:23:35.115Z,21.30
2018-07-24T00:26:03.236Z,19.40
2018-07-24T00:28:31.493Z,20.57
2018-07-24T00:30:59.641Z,18.80
2018-07-24T00:33:27.833Z,19.33
2018-07-24T00:35:55.987Z,21.63
2018-07-24T00:38:24.113Z,20.57
2018-07-24T00:40:52.276Z,20.20
2018-07-24T00:43:20.430Z,18.70
2018-07-24T00:45:48.576Z,18.73
2018-07-24T00:48:16.705Z,19.63
2018-07-24T00:50:44.852Z,19.93
2018-07-24T00:53:12.997Z,19.50
2018-07-24T00:55:41.147Z,20.10
2018-07-24T00:58:09.304Z,20.00
2018-07-24T01:00:37.516Z,20.77
2018-07-24T01:03:05.869Z,20.37
2018-07-24T01:05:34.000Z,19.77
2018-07-24T01:08:02.139Z,18.17
2018-07-24T01:10:30.278Z,19.50
2018-07-24T01:12:58.428Z,20.17
2018-07-24T01:15:26.558Z,18.87
2018-07-24T01:17:54.700Z,19.90
2018-07-24T01:20:22.845Z,19.40
2018-07-24T01:22:51.017Z,20.10
2018-07-24T01:25:19.145Z,19.57
2018-07-24T01:27:47.285Z,19.20
2018-07-24T01:30:15.412Z,20.37
2018-07-24T01:32:43.541Z,19.50
2018-07-24T01:35:11.692Z,21.57
2018-07-24T01:37:39.833Z,20.13
2018-07-24T01:40:07.981Z,19.80
2018-07-24T01:42:36.121Z,20.93
2018-07-24T01:45:04.467Z,20.83
2018-07-24T01:47:32.638Z,20.83
2018-07-24T01:50:00.830Z,21.03
2018-07-24T01:52:28.981Z,21.70
2018-07-24T01:54:57.116Z,19.70
2018-07-24T01:57:25.253Z,19.90
2018-07-24T01:59:53.407Z,20.03
2018-07-24T02:02:21.573Z,20.47
2018-07-24T02:04:49.708Z,20.83
2018-07-24T02:07:17.855Z,21.80
2018-07-24T02:09:45.990Z,21.00
2018-07-24T02:12:14.148Z,21.27
2018-07-24T02:14:42.292Z,23.80
2018-07-24T02:17:10.442Z,21.40
2018-07-24T02:19:38.586Z,20.90
2018-07-24T02:22:06.744Z,22.03
2018-07-24T02:24:34.869Z,21.03
2018-07-24T02:27:03.014Z,20.07
2018-07-24T02:29:31.170Z,24.40
2018-07-24T02:31:59.350Z,20.33
2018-07-24T02:34:27.445Z,20.80
2018-07-24T02:36:55.585Z,22.50
2018-07-24T02:39:23.729Z,20.73
2018-07-24T02:41:51.857Z,21.27
2018-07-24T02:44:20.018Z,20.10
2018-07-24T02:46:48.166Z,21.70
2018-07-24T02:49:16.313Z,20.43
2018-07-24T02:51:44.453Z,21.83
2018-07-24T02:54:12.596Z,20.83
2018-07-24T02:56:40.747Z,22.07
2018-07-24T02:59:08.869Z,21.20
2018-07-24T03:01:37.013Z,20.50
2018-07-24T03:04:05.173Z,23.20
2018-07-24T03:06:33.321Z,20.70
2018-07-24T03:09:01.471Z,21.67
2018-07-24T03:11:29.612Z,23.50
2018-07-24T03:13:57.805Z,21.50
2018-07-24T03:16:25.952Z,22.73
2018-07-24T03:18:54.089Z,21.87
2018-07-24T03:21:22.221Z,21.10
2018-07-24T03:23:50.371Z,21.00
2018-07-24T03:26:18.521Z,22.67
2018-07-24T03:28:46.691Z,22.37
2018-07-24T03:31:14.850Z,22.07
2018-07-24T03:33:42.989Z,21.53
2018-07-24T03:36:11.128Z,21.53
2018-07-24T03:38:39.266Z,22.83
2018-07-24T03:41:07.412Z,21.93
2018-07-24T03:43:35.564Z,22.00
2018-07-24T03:46:03.733Z,21.53
2018-07-24T03:48:31.882Z,22.07
2018-07-24T03:51:00.031Z,22.07
2018-07-24T03:53:28.166Z,22.17
2018-07-24T03:55:56.309Z,21.83
2018-07-24T03:58:24.452Z,22.33
2018-07-24T04:00:52.593Z,22.63
2018-07-24T04:03:20.725Z,22.70
2018-07-24T04:05:48.881Z,24.10
2018-07-24T04:08:17.004Z,23.07
2018-07-24T04:10:45.149Z,21.73
2018-07-24T04:13:13.291Z,22.30
2018-07-24T04:15:41.429Z,21.00
2018-07-24T04:18:09.347Z,22.73
2018-07-24T04:20:37.506Z,21.90
2018-07-24T04:23:05.700Z,22.90
2018-07-24T04:25:33.841Z,22.87
2018-07-24T04:28:01.970Z,23.27
2018-07-24T04:30:30.122Z,22.43
2018-07-24T04:32:58.272Z,22.40
2018-07-24T04:35:26.427Z,22.77
2018-07-24T04:37:54.625Z,24.00
2018-07-24T04:40:22.775Z,23.37
2018-07-24T04:42:51.365Z,21.27
2018-07-24T04:45:19.500Z,22.23
2018-07-24T04:47:47.644Z,21.17
2018-07-24T04:50:16.871Z,22.27
2018-07-24T04:52:45.009Z,20.50
2018-07-24T04:55:13.165Z,21.90
2018-07-24T04:57:41.316Z,22.97
2018-07-24T05:00:09.449Z,22.13
2018-07-24T05:02:37.616Z,21.17
2018-07-24T05:05:05.724Z,21.77
2018-07-24T05:07:33.865Z,20.60
2018-07-24T05:10:01.775Z,21.63
2018-07-24T05:12:29.909Z,21.43
2018-07-24T05:14:58.052Z,21.50
2018-07-24T05:17:26.194Z,21.67
2018-07-24T05:19:54.324Z,22.07
2018-07-24T05:22:22.461Z,24.37
2018-07-24T05:24:50.657Z,21.90
2018-07-24T05:27:18.919Z,21.10
2018-07-24T05:29:47.057Z,20.60
2018-07-24T05:32:15.229Z,19.63
2018-07-24T05:34:46.285Z,20.47
2018-07-24T05:37:14.408Z,19.27
2018-07-24T05:39:42.630Z,18.70
2018-07-24T05:42:10.824Z,19.00
2018-07-24T05:44:38.998Z,18.20
2018-07-24T05:47:07.150Z,18.80
2018-07-24T05:49:35.279Z,18.70
2018-07-24T05:52:03.409Z,19.60
2018-07-24T05:54:31.556Z,17.40
2018-07-24T05:56:59.686Z,16.97
2018-07-24T05:59:27.833Z,16.23
2018-07-24T06:01:55.999Z,17.07
2018-07-24T06:04:24.124Z,16.37
2018-07-24T06:06:52.281Z,17.73
2018-07-24T06:09:20.442Z,17.43
2018-07-24T06:11:48.593Z,19.00
2018-07-24T06:14:16.809Z,16.07
2018-07-24T06:16:44.960Z,17.10
2018-07-24T06:19:13.085Z,17.03
2018-07-24T06:21:41.337Z,17.20
2018-07-24T06:24:09.496Z,16.00
2018-07-24T06:26:37.657Z,14.73
2018-07-24T06:29:05.801Z,15.97
2018-07-24T06:31:33.981Z,13.97
2018-07-24T06:34:02.161Z,14.17
2018-07-24T06:36:30.668Z,13.63
2018-07-24T06:38:58.823Z,14.90
2018-07-24T06:41:26.986Z,15.20
2018-07-24T06:43:55.117Z,14.83
2018-07-24T06:46:23.253Z,14.70
2018-07-24T06:48:51.397Z,13.73
2018-07-24T06:51:19.604Z,14.37
2018-07-24T06:53:47.705Z,14.47
2018-07-24T06:56:15.836Z,14.00
2018-07-24T06:58:43.981Z,13.47
2018-07-24T07:01:12.181Z,13.90
2018-07-24T07:03:40.442Z,12.73
2018-07-24T07:06:08.590Z,15.10
2018-07-24T07:08:36.744Z,13.37
2018-07-24T07:11:04.887Z,14.33
2018-07-24T07:13:33.120Z,13.73
2018-07-24T07:16:01.204Z,13.37
2018-07-24T07:18:29.352Z,12.60
2018-07-24T07:20:57.515Z,14.07
2018-07-24T07:23:25.692Z,13.83
2018-07-24T07:25:53.846Z,12.90
2018-07-24T07:28:21.995Z,12.17
2018-07-24T07:30:50.124Z,11.83
2018-07-24T07:33:18.274Z,11.93
2018-07-24T07:35:46.421Z,11.87
2018-07-24T07:38:14.566Z,11.80
2018-07-24T07:40:42.688Z,11.17
2018-07-24T07:43:10.841Z,12.27
2018-07-24T07:45:38.968Z,11.70
2018-07-24T07:48:07.120Z,10.17
2018-07-24T07:50:35.253Z,10.37
2018-07-24T07:53:03.396Z,10.83
2018-07-24T07:55:31.545Z,11.50
2018-07-24T07:57:59.698Z,11.60
2018-07-24T08:00:27.845Z,11.10
2018-07-24T08:02:55.976Z,10.10
2018-07-24T08:05:24.110Z,10.03
2018-07-24T08:07:52.254Z,9.80
2018-07-24T08:10:20.398Z,10.03
2018-07-24T08:12:48.533Z,10.00
2018-07-24T08:15:16.656Z,11.37
2018-07-24T08:17:44.797Z,11.37
2018-07-24T08:20:12.926Z,10.10
2018-07-24T08:22:41.057Z,10.60
2018-07-24T08:25:09.199Z,10.80
2018-07-24T08:27:37.331Z,10.63
2018-07-24T08:30:05.472Z,10.70
2018-07-24T08:32:33.604Z,9.90
2018-07-24T08:35:01.729Z,9.30
2018-07-24T08:37:29.884Z,10.17
2018-07-24T08:39:58.041Z,9.97
2018-07-24T08:42:26.176Z,11.13
2018-07-24T08:44:54.336Z,10.27
2018-07-24T08:47:22.233Z,10.40
2018-07-24T08:49:50.379Z,9.33
2018-07-24T08:52:18.533Z,10.20
2018-07-24T08:54:46.924Z,10.47
2018-07-24T08:57:14.798Z,11.10
2018-07-24T08:59:42.941Z,9.70
2018-07-24T09:02:11.073Z,10.27
2018-07-24T09:04:39.209Z,9.80
2018-07-24T09:07:07.629Z,10.43
2018-07-24T09:09:35.761Z,9.73
2018-07-24T09:12:03.906Z,9.80
2018-07-24T09:14:32.045Z,9.43
2018-07-24T09:17:00.175Z,9.43
2018-07-24T09:19:28.075Z,9.67
2018-07-24T09:21:56.202Z,8.53
2018-07-24T09:24:24.326Z,9.47
2018-07-24T09:26:52.457Z,9.87
2018-07-24T09:29:20.597Z,8.40
2018-07-24T09:31:48.721Z,8.80
2018-07-24T09:34:16.871Z,9.10
2018-07-24T09:36:45.002Z,8.00
2018-07-24T09:39:13.130Z,8.90
2018-07-24T09:41:41.275Z,7.97
2018-07-24T09:44:09.455Z,8.63
2018-07-24T09:46:37.600Z,7.97
2018-07-24T09:49:05.915Z,8.80
2018-07-24T09:51:34.096Z,8.40
2018-07-24T09:54:02.165Z,7.67
2018-07-24T09:56:30.338Z,8.10
2018-07-24T09:58:58.478Z,8.60
2018-07-24T10:01:33.740Z,8.33
2018-07-24T10:04:02.727Z,7.63
2018-07-24T10:06:31.516Z,7.70
2018-07-24T10:08:59.664Z,9.07
2018-07-24T10:11:27.833Z,9.00
2018-07-24T10:13:56.011Z,8.70
2018-07-24T10:16:24.176Z,7.83
2018-07-24T10:18:52.375Z,9.00
2018-07-24T10:21:20.473Z,8.07
2018-07-24T10:23:48.624Z,8.77
2018-07-24T10:26:16.773Z,8.20
2018-07-24T10:28:44.949Z,8.20
2018-07-24T10:31:13.129Z,8.63
2018-07-24T10:33:41.467Z,7.90
2018-07-24T10:36:09.613Z,8.70
2018-07-24T10:38:37.954Z,8.03
2018-07-24T10:41:06.270Z,8.40
2018-07-24T10:43:34.613Z,10.17
2018-07-24T10:46:02.809Z,8.47
2018-07-24T10:48:30.717Z,8.03
2018-07-24T10:50:59.040Z,7.60
2018-07-24T10:53:27.197Z,8.10
2018-07-24T10:55:55.388Z,8.30
2018-07-24T10:58:23.523Z,9.00
2018-07-24T11:00:51.710Z,8.97
2018-07-24T11:03:19.856Z,9.07
2018-07-24T11:05:47.972Z,8.97
2018-07-24T11:08:16.109Z,8.33
2018-07-24T11:10:44.225Z,8.80
2018-07-24T11:13:12.494Z,9.47
2018-07-24T11:15:40.625Z,8.17
2018-07-24T11:18:08.757Z,8.70
2018-07-24T11:20:36.900Z,9.10
2018-07-24T11:23:05.145Z,8.33
2018-07-24T11:25:33.169Z,9.13
2018-07-24T11:28:01.083Z,8.60
2018-07-24T11:30:29.244Z,8.33
2018-07-24T11:32:57.449Z,12.60
2018-07-24T11:35:25.569Z,8.73
2018-07-24T11:37:53.660Z,8.80
2018-07-24T11:40:21.788Z,7.60
2018-07-24T11:42:49.937Z,8.43
2018-07-24T11:45:18.077Z,9.07
2018-07-24T11:47:46.273Z,8.50
2018-07-24T11:50:14.436Z,8.80
2018-07-24T11:52:42.566Z,8.93
2018-07-24T11:55:10.704Z,7.83
2018-07-24T11:57:38.893Z,9.30
2018-07-24T12:00:07.037Z,8.20
2018-07-24T12:02:35.200Z,8.57
2018-07-24T12:05:03.341Z,8.63
2018-07-24T12:07:31.481Z,7.93
2018-07-24T12:09:59.653Z,8.00
2018-07-24T12:12:28.180Z,8.90
2018-07-24T12:14:56.457Z,7.93
2018-07-24T12:17:24.458Z,7.60
2018-07-24T12:19:52.605Z,8.80
2018-07-24T12:22:21.935Z,7.77
2018-07-24T12:24:50.138Z,7.33
2018-07-24T12:27:18.058Z,7.23
2018-07-24T12:29:46.185Z,8.10
2018-07-24T12:32:14.913Z,9.00
2018-07-24T12:34:43.027Z,7.27
2018-07-24T12:37:11.623Z,7.90
2018-07-24T12:39:39.766Z,6.73
2018-07-24T12:42:07.997Z,6.70
2018-07-24T12:44:36.101Z,7.30
2018-07-24T12:47:04.249Z,7.17
2018-07-24T12:49:40.176Z,7.80
2018-07-24T12:52:08.558Z,7.57
2018-07-24T12:54:36.725Z,8.23
2018-07-24T12:57:04.886Z,8.70
2018-07-24T12:59:33.076Z,7.60
2018-07-24T13:02:02.112Z,8.33
2018-07-24T13:04:30.240Z,7.37
2018-07-24T13:06:58.382Z,6.80
2018-07-24T13:09:26.561Z,7.33
2018-07-24T13:11:54.721Z,7.47
2018-07-24T13:14:22.880Z,7.23
2018-07-24T13:16:51.130Z,7.10
2018-07-24T13:19:19.312Z,7.67
2018-07-24T13:21:47.464Z,7.87
2018-07-24T13:24:15.646Z,7.93
2018-07-24T13:26:44.031Z,7.90
2018-07-24T13:29:12.161Z,8.90
2018-07-24T13:31:40.324Z,8.60
2018-07-24T13:34:08.519Z,7.47
2018-07-24T13:36:38.383Z,8.00
2018-07-24T13:39:08.863Z,7.67
2018-07-24T13:41:36.998Z,7.10
2018-07-24T13:44:05.401Z,7.73
2018-07-24T13:46:33.603Z,8.20
2018-07-24T13:49:01.757Z,7.23
2018-07-24T13:51:29.893Z,7.47
2018-07-24T13:53:58.036Z,7.83
2018-07-24T13:56:26.328Z,7.20
2018-07-24T13:58:54.613Z,7.17
2018-07-24T14:01:22.761Z,7.00
2018-07-24T14:03:51.006Z,7.73
2018-07-24T14:06:19.170Z,7.77
2018-07-24T14:08:47.617Z,7.30
2018-07-24T14:11:15.778Z,6.93
2018-07-24T14:13:43.928Z,7.17
2018-07-24T14:16:12.072Z,6.97
2018-07-24T14:18:40.239Z,6.57
2018-07-24T14:21:08.573Z,6.50
2018-07-24T14:23:37.016Z,7.00
2018-07-24T14:26:05.181Z,7.20
2018-07-24T14:28:33.337Z,7.97
2018-07-24T14:31:01.496Z,6.93
2018-07-24T14:33:29.657Z,6.70
2018-07-24T14:35:57.837Z,7.40
2018-07-24T14:38:26.008Z,6.30
2018-07-24T14:40:54.176Z,6.30
2018-07-24T14:43:22.436Z,6.20
2018-07-24T14:45:50.612Z,6.97
2018-07-24T14:48:18.776Z,6.60
2018-07-24T14:50:46.942Z,7.20
2018-07-24T14:53:15.154Z,6.83
2018-07-24T14:55:43.340Z,7.60
2018-07-24T14:58:11.496Z,7.37
2018-07-24T15:00:39.750Z,6.60
2018-07-24T15:03:07.958Z,7.10
2018-07-24T15:05:36.139Z,6.90
2018-07-24T15:08:04.322Z,6.63
2018-07-24T15:10:32.492Z,7.13
2018-07-24T15:13:00.704Z,6.53
2018-07-24T15:15:28.845Z,6.60
2018-07-24T15:17:56.985Z,6.67
2018-07-24T15:20:25.141Z,7.13
2018-07-24T15:22:53.298Z,6.77
2018-07-24T15:25:21.439Z,5.90
2018-07-24T15:27:49.589Z,6.90
2018-07-24T15:30:17.741Z,6.60
2018-07-24T15:32:45.905Z,7.77
2018-07-24T15:35:14.116Z,7.43
2018-07-24T15:37:42.209Z,7.20
2018-07-24T15:40:10.343Z,7.90
2018-07-24T15:42:38.501Z,9.07
2018-07-24T15:45:06.657Z,7.20
2018-07-24T15:47:34.817Z,7.20
2018-07-24T15:50:02.973Z,6.10
2018-07-24T15:52:31.129Z,6.23
2018-07-24T15:54:59.057Z,6.90
2018-07-24T15:57:29.303Z,7.50
2018-07-24T15:59:57.500Z,6.33
2018-07-24T16:02:25.519Z,6.97
2018-07-24T16:04:53.634Z,6.23
2018-07-24T16:07:21.800Z,6.90
2018-07-24T16:09:49.709Z,6.90
2018-07-24T16:12:17.858Z,6.73
2018-07-24T16:14:46.094Z,6.60
2018-07-24T16:17:14.481Z,6.90
2018-07-24T16:19:42.644Z,6.77
2018-07-24T16:22:10.836Z,6.60
2018-07-24T16:24:39.004Z,6.37
2018-07-24T16:27:07.181Z,6.47
2018-07-24T16:29:35.332Z,6.90
2018-07-24T16:32:03.514Z,7.10
2018-07-24T16:34:31.688Z,6.83
2018-07-24T16:36:59.876Z,6.60
2018-07-24T16:39:28.032Z,6.53
2018-07-24T16:41:56.202Z,7.90
2018-07-24T16:44:24.361Z,6.57
2018-07-24T16:46:52.517Z,6.27
2018-07-24T16:49:20.720Z,6.40
2018-07-24T16:51:48.913Z,6.40
2018-07-24T16:54:17.129Z,6.77
2018-07-24T16:56:45.273Z,6.73
2018-07-24T16:59:14.155Z,7.33
2018-07-24T17:01:42.111Z,7.07
2018-07-24T17:04:10.301Z,7.70
2018-07-24T17:06:38.711Z,7.17
2018-07-24T17:09:08.381Z,6.90
2018-07-24T17:11:36.721Z,7.27
2018-07-24T17:14:04.909Z,7.33
2018-07-24T17:16:33.904Z,6.73
2018-07-24T17:19:02.163Z,7.27
2018-07-24T17:21:30.337Z,6.53
2018-07-24T17:23:58.500Z,8.33
2018-07-24T17:26:26.709Z,6.87
2018-07-24T17:28:54.868Z,7.43
2018-07-24T17:31:23.038Z,8.07
2018-07-24T17:33:51.200Z,7.07
2018-07-24T17:36:19.389Z,7.23
2018-07-24T17:38:47.584Z,6.67
2018-07-24T17:41:15.764Z,6.77
2018-07-24T17:43:43.697Z,7.40
2018-07-24T17:46:11.852Z,7.10
2018-07-24T17:48:40.026Z,6.70
2018-07-24T17:51:08.210Z,6.73
2018-07-24T17:53:36.382Z,7.00
2018-07-24T17:56:04.537Z,7.80
2018-07-24T17:58:32.706Z,7.83
2018-07-24T18:01:00.935Z,7.37
2018-07-24T18:03:29.052Z,6.50
2018-07-24T18:05:57.224Z,6.90
2018-07-24T18:08:26.194Z,6.17
2018-07-24T18:10:54.371Z,7.47
2018-07-24T18:13:22.536Z,6.63
2018-07-24T18:15:50.723Z,7.47
2018-07-24T18:18:18.859Z,7.87
2018-07-24T18:20:47.005Z,8.10
2018-07-24T18:23:15.191Z,7.00
2018-07-24T18:25:43.345Z,7.60
2018-07-24T18:28:11.517Z,6.90
2018-07-24T18:30:39.681Z,8.90
2018-07-24T18:33:07.845Z,9.07
2018-07-24T18:35:35.991Z,8.60
2018-07-24T18:38:03.896Z,8.47
2018-07-24T18:40:32.090Z,10.87
2018-07-24T18:43:00.245Z,9.60
2018-07-24T18:45:28.392Z,13.23
2018-07-24T18:47:56.545Z,9.20
2018-07-24T18:50:24.710Z,10.33
2018-07-24T18:52:52.860Z,9.23
2018-07-24T18:55:21.021Z,9.37
2018-07-24T18:57:49.172Z,8.50
2018-07-24T19:00:17.345Z,10.10
2018-07-24T19:02:45.515Z,8.93
2018-07-24T19:05:13.723Z,10.53
2018-07-24T19:07:41.866Z,9.53
2018-07-24T19:10:10.038Z,9.53
2018-07-24T19:12:38.181Z,9.40
2018-07-24T19:15:06.845Z,10.73
2018-07-24T19:17:35.006Z,10.33
2018-07-24T19:20:03.173Z,9.80
2018-07-24T19:22:31.346Z,9.90
2018-07-24T19:24:59.537Z,10.30
2018-07-24T19:27:27.705Z,10.80
2018-07-24T19:29:55.861Z,10.87
2018-07-24T19:32:24.008Z,9.80
2018-07-24T19:34:52.172Z,11.27
2018-07-24T19:37:20.313Z,10.37
2018-07-24T19:39:48.480Z,10.40
2018-07-24T19:42:16.636Z,10.97
2018-07-24T19:44:44.811Z,11.37
2018-07-24T19:47:12.990Z,10.13
2018-07-24T19:49:41.223Z,10.97
2018-07-24T19:52:09.324Z,10.57
2018-07-24T19:54:37.488Z,10.83
2018-07-24T19:57:05.779Z,10.87
2018-07-24T19:59:33.948Z,10.80
2018-07-24T20:02:02.133Z,12.30
2018-07-24T20:04:30.307Z,11.37
2018-07-24T20:06:58.478Z,10.63
2018-07-24T20:09:26.667Z,11.17
2018-07-24T20:11:54.816Z,10.83
2018-07-24T20:14:22.985Z,11.57
2018-07-24T20:16:51.162Z,11.50
2018-07-24T20:19:19.427Z,11.70
2018-07-24T20:21:47.595Z,10.27
2018-07-24T20:24:15.783Z,10.67
2018-07-24T20:26:43.953Z,11.90
2018-07-24T20:29:12.515Z,11.20
2018-07-24T20:31:40.692Z,11.73
2018-07-24T20:34:09.374Z,11.13
2018-07-24T20:36:37.636Z,10.00
2018-07-24T20:39:08.708Z,10.37
2018-07-24T20:41:37.148Z,11.90
2018-07-24T20:44:05.332Z,10.67
2018-07-24T20:46:33.504Z,11.47
2018-07-24T20:49:01.730Z,10.40
2018-07-24T20:51:29.893Z,11.43
2018-07-24T20:53:58.141Z,10.40
2018-07-24T20:56:26.523Z,11.10
2018-07-24T20:58:54.662Z,11.83
2018-07-24T21:01:22.852Z,11.73
2018-07-24T21:03:51.000Z,10.97
2018-07-24T21:06:19.212Z,11.30
2018-07-24T21:08:47.400Z,10.70
2018-07-24T21:11:15.576Z,11.10
2018-07-24T21:13:43.779Z,10.63
2018-07-24T21:16:11.937Z,9.93
2018-07-24T21:18:40.096Z,10.73
2018-07-24T21:21:08.262Z,11.10
2018-07-24T21:23:36.444Z,11.63
2018-07-24T21:26:04.804Z,11.90
2018-07-24T21:28:32.972Z,11.57
2018-07-24T21:31:01.134Z,11.77
2018-07-24T21:33:29.311Z,10.83
2018-07-24T21:35:57.477Z,11.37
2018-07-24T21:38:25.648Z,10.83
2018-07-24T21:40:53.791Z,11.00
2018-07-24T21:43:21.967Z,11.33
2018-07-24T21:45:50.138Z,11.20
2018-07-24T21:48:18.347Z,11.20
2018-07-24T21:50:46.516Z,11.63
2018-07-24T21:53:14.669Z,11.00
2018-07-24T21:55:42.838Z,11.40
2018-07-24T21:58:11.041Z,12.00
2018-07-24T22:00:39.244Z,10.83
2018-07-24T22:03:08.678Z,11.10
2018-07-24T22:05:36.821Z,10.20
2018-07-24T22:08:04.981Z,11.20
2018-07-24T22:10:33.145Z,11.47
2018-07-24T22:13:01.831Z,11.40
2018-07-24T22:15:29.988Z,11.53
2018-07-24T22:17:58.353Z,12.33
2018-07-24T22:20:26.674Z,11.37
2018-07-24T22:22:54.919Z,10.87
2018-07-24T22:25:23.209Z,10.60
2018-07-24T22:27:51.476Z,11.93
2018-07-24T22:30:19.625Z,12.70
2018-07-24T22:32:47.779Z,10.30
2018-07-24T22:35:16.060Z,10.73
2018-07-24T22:37:44.255Z,11.30
2018-07-24T22:40:12.535Z,11.17
2018-07-24T22:42:40.713Z,11.90
2018-07-24T22:45:12.379Z,12.07
2018-07-24T22:47:40.529Z,12.30
2018-07-24T22:50:08.664Z,11.80
2018-07-24T22:52:36.824Z,11.23
2018-07-24T22:55:05.259Z,11.70
2018-07-24T22:57:33.394Z,11.70
2018-07-24T23:00:01.554Z,10.93
2018-07-24T23:02:29.721Z,10.60
2018-07-24T23:04:58.821Z,11.83
2018-07-24T23:07:27.012Z,10.93
2018-07-24T23:09:57.397Z,14.33
2018-07-24T23:12:25.577Z,12.00
2018-07-24T23:14:53.993Z,11.53
2018-07-24T23:17:22.206Z,13.33
2018-07-24T23:19:50.461Z,11.33
2018-07-24T23:22:18.671Z,10.93
2018-07-24T23:24:46.824Z,10.97
2018-07-24T23:27:15.040Z,11.53
2018-07-24T23:29:43.208Z,13.47
2018-07-24T23:32:11.364Z,10.33
2018-07-24T23:34:39.520Z,12.97
2018-07-24T23:37:07.693Z,12.40
2018-07-24T23:39:35.830Z,11.70
2018-07-24T23:42:03.985Z,11.60
2018-07-24T23:44:32.148Z,11.50
2018-07-24T23:47:00.322Z,11.00
2018-07-24T23:49:28.569Z,11.47
2018-07-24T23:51:56.788Z,11.50
2018-07-24T23:54:24.940Z,11.70
2018-07-24T23:56:53.091Z,13.07
2018-07-24T23:59:21.253Z,12.37
